sensor_id;sensor_type;location;lat;lon;timestamp;temperature;humidity
74923;HTU21D;64715;44.760;37.678;2023-02-15T00:00:37;1.39;87.32
74923;HTU21D;64715;44.760;37.678;2023-02-15T00:01:38;1.40;87.35
74923;HTU21D;64715;44.760;37.678;2023-02-15T00:02:39;1.40;87.15
74923;HTU21D;64715;44.760;37.678;2023-02-15T00:03:40;1.41;87.12
74923;HTU21D;64715;44.760;37.678;2023-02-15T00:04:43;1.43;87.14
74923;HTU21D;64715;44.760;37.678;2023-02-15T00:05:47;1.43;87.31
74923;HTU21D;64715;44.760;37.678;2023-02-15T00:06:48;1.47;87.16
74923;HTU21D;64715;44.760;37.678;2023-02-15T00:07:49;1.46;87.13
74923;HTU21D;64715;44.760;37.678;2023-02-15T00:08:50;1.49;87.20
74923;HTU21D;64715;44.760;37.678;2023-02-15T00:09:51;1.49;87.12
74923;HTU21D;64715;44.760;37.678;2023-02-15T00:10:52;1.48;87.04
74923;HTU21D;64715;44.760;37.678;2023-02-15T00:11:53;1.49;87.26
74923;HTU21D;64715;44.760;37.678;2023-02-15T00:12:54;1.50;87.25
74923;HTU21D;64715;44.760;37.678;2023-02-15T00:13:55;1.51;87.27
74923;HTU21D;64715;44.760;37.678;2023-02-15T00:14:56;1.53;87.15
74923;HTU21D;64715;44.760;37.678;2023-02-15T00:16:04;1.53;86.98
74923;HTU21D;64715;44.760;37.678;2023-02-15T00:17:07;1.53;87.07
74923;HTU21D;64715;44.760;37.678;2023-02-15T00:18:08;1.53;87.22
74923;HTU21D;64715;44.760;37.678;2023-02-15T00:19:10;1.54;86.93
74923;HTU21D;64715;44.760;37.678;2023-02-15T00:20:11;1.55;87.12
74923;HTU21D;64715;44.760;37.678;2023-02-15T00:21:13;1.54;86.99
74923;HTU21D;64715;44.760;37.678;2023-02-15T00:22:14;1.55;86.96
74923;HTU21D;64715;44.760;37.678;2023-02-15T00:23:14;1.56;86.96
74923;HTU21D;64715;44.760;37.678;2023-02-15T00:24:17;1.57;87.11
74923;HTU21D;64715;44.760;37.678;2023-02-15T00:25:18;1.57;87.15
74923;HTU21D;64715;44.760;37.678;2023-02-15T00:26:20;1.57;86.78
74923;HTU21D;64715;44.760;37.678;2023-02-15T00:27:21;1.57;86.89
74923;HTU21D;64715;44.760;37.678;2023-02-15T00:28:22;1.60;86.93
74923;HTU21D;64715;44.760;37.678;2023-02-15T00:29:24;1.60;86.88
74923;HTU21D;64715;44.760;37.678;2023-02-15T00:30:25;1.58;86.83
74923;HTU21D;64715;44.760;37.678;2023-02-15T00:31:27;1.58;86.83
74923;HTU21D;64715;44.760;37.678;2023-02-15T00:32:30;1.55;87.14
74923;HTU21D;64715;44.760;37.678;2023-02-15T00:33:31;1.54;87.03
74923;HTU21D;64715;44.760;37.678;2023-02-15T00:34:32;1.55;86.67
74923;HTU21D;64715;44.760;37.678;2023-02-15T00:35:33;1.53;86.60
74923;HTU21D;64715;44.760;37.678;2023-02-15T00:36:34;1.53;86.83
74923;HTU21D;64715;44.760;37.678;2023-02-15T00:37:35;1.52;86.76
74923;HTU21D;64715;44.760;37.678;2023-02-15T00:38:37;1.53;86.72
74923;HTU21D;64715;44.760;37.678;2023-02-15T00:39:38;1.53;86.70
74923;HTU21D;64715;44.760;37.678;2023-02-15T00:40:40;1.53;86.76
74923;HTU21D;64715;44.760;37.678;2023-02-15T00:41:41;1.51;86.84
74923;HTU21D;64715;44.760;37.678;2023-02-15T00:42:42;1.51;86.70
74923;HTU21D;64715;44.760;37.678;2023-02-15T00:43:43;1.52;87.19
74923;HTU21D;64715;44.760;37.678;2023-02-15T00:44:45;1.52;86.95
74923;HTU21D;64715;44.760;37.678;2023-02-15T00:45:46;1.51;86.65
74923;HTU21D;64715;44.760;37.678;2023-02-15T00:46:47;1.51;87.08
74923;HTU21D;64715;44.760;37.678;2023-02-15T00:47:48;1.50;86.74
74923;HTU21D;64715;44.760;37.678;2023-02-15T00:48:49;1.52;87.14
74923;HTU21D;64715;44.760;37.678;2023-02-15T00:49:50;1.51;86.98
74923;HTU21D;64715;44.760;37.678;2023-02-15T00:50:57;1.51;87.00
74923;HTU21D;64715;44.760;37.678;2023-02-15T00:51:58;1.50;86.91
74923;HTU21D;64715;44.760;37.678;2023-02-15T00:52:59;1.50;86.92
74923;HTU21D;64715;44.760;37.678;2023-02-15T00:54:01;1.50;86.58
74923;HTU21D;64715;44.760;37.678;2023-02-15T00:55:04;1.48;87.01
74923;HTU21D;64715;44.760;37.678;2023-02-15T00:56:05;1.45;86.86
74923;HTU21D;64715;44.760;37.678;2023-02-15T00:57:06;1.46;86.91
74923;HTU21D;64715;44.760;37.678;2023-02-15T00:58:08;1.46;87.17
74923;HTU21D;64715;44.760;37.678;2023-02-15T00:59:09;1.46;86.90
74923;HTU21D;64715;44.760;37.678;2023-02-15T01:00:12;1.46;86.89
74923;HTU21D;64715;44.760;37.678;2023-02-15T01:01:16;1.46;87.09
74923;HTU21D;64715;44.760;37.678;2023-02-15T01:02:18;1.46;86.86
74923;HTU21D;64715;44.760;37.678;2023-02-15T01:03:21;1.45;86.86
74923;HTU21D;64715;44.760;37.678;2023-02-15T01:04:22;1.46;86.86
74923;HTU21D;64715;44.760;37.678;2023-02-15T01:05:23;1.46;86.75
74923;HTU21D;64715;44.760;37.678;2023-02-15T01:06:25;1.45;86.71
74923;HTU21D;64715;44.760;37.678;2023-02-15T01:07:25;1.43;86.83
74923;HTU21D;64715;44.760;37.678;2023-02-15T01:08:27;1.42;86.97
74923;HTU21D;64715;44.760;37.678;2023-02-15T01:09:28;1.43;87.10
74923;HTU21D;64715;44.760;37.678;2023-02-15T01:10:31;1.42;86.99
74923;HTU21D;64715;44.760;37.678;2023-02-15T01:11:32;1.42;86.93
74923;HTU21D;64715;44.760;37.678;2023-02-15T01:12:33;1.42;87.25
74923;HTU21D;64715;44.760;37.678;2023-02-15T01:13:35;1.43;86.89
74923;HTU21D;64715;44.760;37.678;2023-02-15T01:14:36;1.42;86.96
74923;HTU21D;64715;44.760;37.678;2023-02-15T01:15:39;1.42;86.99
74923;HTU21D;64715;44.760;37.678;2023-02-15T01:16:40;1.42;86.80
74923;HTU21D;64715;44.760;37.678;2023-02-15T01:17:41;1.42;87.06
74923;HTU21D;64715;44.760;37.678;2023-02-15T01:18:43;1.43;87.01
74923;HTU21D;64715;44.760;37.678;2023-02-15T01:19:44;1.42;87.00
74923;HTU21D;64715;44.760;37.678;2023-02-15T01:20:45;1.42;86.94
74923;HTU21D;64715;44.760;37.678;2023-02-15T01:21:48;1.40;86.81
74923;HTU21D;64715;44.760;37.678;2023-02-15T01:22:50;1.39;86.97
74923;HTU21D;64715;44.760;37.678;2023-02-15T01:23:51;1.38;86.69
74923;HTU21D;64715;44.760;37.678;2023-02-15T01:24:52;1.37;86.97
74923;HTU21D;64715;44.760;37.678;2023-02-15T01:25:53;1.38;86.83
74923;HTU21D;64715;44.760;37.678;2023-02-15T01:26:54;1.35;86.76
74923;HTU21D;64715;44.760;37.678;2023-02-15T01:27:55;1.36;86.91
74923;HTU21D;64715;44.760;37.678;2023-02-15T01:28:56;1.36;87.02
74923;HTU21D;64715;44.760;37.678;2023-02-15T01:29:57;1.33;86.67
74923;HTU21D;64715;44.760;37.678;2023-02-15T01:30:58;1.32;86.64
74923;HTU21D;64715;44.760;37.678;2023-02-15T01:31:59;1.28;86.82
74923;HTU21D;64715;44.760;37.678;2023-02-15T01:33:00;1.27;86.33
74923;HTU21D;64715;44.760;37.678;2023-02-15T01:34:04;1.24;86.60
74923;HTU21D;64715;44.760;37.678;2023-02-15T01:35:06;1.21;86.50
74923;HTU21D;64715;44.760;37.678;2023-02-15T01:36:07;1.20;86.58
74923;HTU21D;64715;44.760;37.678;2023-02-15T01:37:08;1.19;86.48
74923;HTU21D;64715;44.760;37.678;2023-02-15T01:38:09;1.17;86.58
74923;HTU21D;64715;44.760;37.678;2023-02-15T01:39:12;1.17;86.58
74923;HTU21D;64715;44.760;37.678;2023-02-15T01:40:15;1.16;86.61
74923;HTU21D;64715;44.760;37.678;2023-02-15T01:41:18;1.14;86.57
74923;HTU21D;64715;44.760;37.678;2023-02-15T01:42:25;1.14;86.39
74923;HTU21D;64715;44.760;37.678;2023-02-15T01:43:43;1.12;86.58
74923;HTU21D;64715;44.760;37.678;2023-02-15T01:45:51;1.10;86.77
74923;HTU21D;64715;44.760;37.678;2023-02-15T01:46:52;1.13;86.69
74923;HTU21D;64715;44.760;37.678;2023-02-15T01:48:05;1.13;86.80
74923;HTU21D;64715;44.760;37.678;2023-02-15T01:49:20;1.12;86.77
74923;HTU21D;64715;44.760;37.678;2023-02-15T01:51:12;1.13;87.15
74923;HTU21D;64715;44.760;37.678;2023-02-15T01:51:55;1.12;87.06
74923;HTU21D;64715;44.760;37.678;2023-02-15T01:53:07;1.12;86.99
74923;HTU21D;64715;44.760;37.678;2023-02-15T01:54:22;1.12;87.08
74923;HTU21D;64715;44.760;37.678;2023-02-15T01:55:31;1.13;87.00
74923;HTU21D;64715;44.760;37.678;2023-02-15T01:56:35;1.12;87.19
74923;HTU21D;64715;44.760;37.678;2023-02-15T01:57:38;1.13;87.41
74923;HTU21D;64715;44.760;37.678;2023-02-15T01:58:41;1.12;87.28
74923;HTU21D;64715;44.760;37.678;2023-02-15T01:59:46;1.14;87.28
74923;HTU21D;64715;44.760;37.678;2023-02-15T02:00:49;1.16;87.35
74923;HTU21D;64715;44.760;37.678;2023-02-15T02:01:52;1.12;87.30
74923;HTU21D;64715;44.760;37.678;2023-02-15T02:02:56;1.17;87.51
74923;HTU21D;64715;44.760;37.678;2023-02-15T02:04:04;1.18;87.47
74923;HTU21D;64715;44.760;37.678;2023-02-15T02:05:08;1.19;87.39
74923;HTU21D;64715;44.760;37.678;2023-02-15T02:06:09;1.20;87.26
74923;HTU21D;64715;44.760;37.678;2023-02-15T02:07:16;1.19;87.38
74923;HTU21D;64715;44.760;37.678;2023-02-15T02:08:17;1.20;87.45
74923;HTU21D;64715;44.760;37.678;2023-02-15T02:09:18;1.22;87.57
74923;HTU21D;64715;44.760;37.678;2023-02-15T02:10:22;1.21;87.51
74923;HTU21D;64715;44.760;37.678;2023-02-15T02:11:24;1.25;87.71
74923;HTU21D;64715;44.760;37.678;2023-02-15T02:12:25;1.25;87.38
74923;HTU21D;64715;44.760;37.678;2023-02-15T02:13:27;1.24;87.51
74923;HTU21D;64715;44.760;37.678;2023-02-15T02:14:28;1.26;87.25
74923;HTU21D;64715;44.760;37.678;2023-02-15T02:15:54;1.25;87.56
74923;HTU21D;64715;44.760;37.678;2023-02-15T02:18:40;1.27;87.83
74923;HTU21D;64715;44.760;37.678;2023-02-15T02:21:28;1.23;87.10
74923;HTU21D;64715;44.760;37.678;2023-02-15T02:27:33;1.18;87.32
74923;HTU21D;64715;44.760;37.678;2023-02-15T02:33:04;1.10;87.46
74923;HTU21D;64715;44.760;37.678;2023-02-15T02:37:20;1.07;87.59
74923;HTU21D;64715;44.760;37.678;2023-02-15T02:38:56;1.06;87.57
74923;HTU21D;64715;44.760;37.678;2023-02-15T02:40:16;1.06;87.54
74923;HTU21D;64715;44.760;37.678;2023-02-15T02:42:39;1.05;87.35
74923;HTU21D;64715;44.760;37.678;2023-02-15T02:44:03;1.05;87.48
74923;HTU21D;64715;44.760;37.678;2023-02-15T02:45:25;1.05;87.54
74923;HTU21D;64715;44.760;37.678;2023-02-15T02:47:32;1.05;87.48
74923;HTU21D;64715;44.760;37.678;2023-02-15T02:48:35;1.05;87.80
74923;HTU21D;64715;44.760;37.678;2023-02-15T02:49:41;1.04;87.79
74923;HTU21D;64715;44.760;37.678;2023-02-15T02:50:43;1.04;87.36
74923;HTU21D;64715;44.760;37.678;2023-02-15T02:51:44;1.05;87.66
74923;HTU21D;64715;44.760;37.678;2023-02-15T02:52:50;1.07;87.72
74923;HTU21D;64715;44.760;37.678;2023-02-15T02:53:56;1.05;87.67
74923;HTU21D;64715;44.760;37.678;2023-02-15T02:54:59;1.06;87.45
74923;HTU21D;64715;44.760;37.678;2023-02-15T02:56:12;1.10;87.61
74923;HTU21D;64715;44.760;37.678;2023-02-15T02:57:16;1.08;87.67
74923;HTU21D;64715;44.760;37.678;2023-02-15T02:59:31;1.09;87.63
74923;HTU21D;64715;44.760;37.678;2023-02-15T03:01:51;1.09;87.61
74923;HTU21D;64715;44.760;37.678;2023-02-15T03:03:01;1.10;87.61
74923;HTU21D;64715;44.760;37.678;2023-02-15T03:04:10;1.10;87.64
74923;HTU21D;64715;44.760;37.678;2023-02-15T03:05:16;1.10;87.41
74923;HTU21D;64715;44.760;37.678;2023-02-15T03:06:25;1.10;87.44
74923;HTU21D;64715;44.760;37.678;2023-02-15T03:07:31;1.10;87.54
74923;HTU21D;64715;44.760;37.678;2023-02-15T03:08:38;1.12;87.36
74923;HTU21D;64715;44.760;37.678;2023-02-15T03:09:44;1.10;87.62
74923;HTU21D;64715;44.760;37.678;2023-02-15T03:10:51;1.12;87.66
74923;HTU21D;64715;44.760;37.678;2023-02-15T03:11:54;1.12;87.57
74923;HTU21D;64715;44.760;37.678;2023-02-15T03:12:56;1.13;87.52
74923;HTU21D;64715;44.760;37.678;2023-02-15T03:13:57;1.13;87.35
74923;HTU21D;64715;44.760;37.678;2023-02-15T03:16:04;1.17;87.60
74923;HTU21D;64715;44.760;37.678;2023-02-15T03:17:27;1.17;87.49
74923;HTU21D;64715;44.760;37.678;2023-02-15T03:18:41;1.18;87.67
74923;HTU21D;64715;44.760;37.678;2023-02-15T03:19:45;1.17;87.72
74923;HTU21D;64715;44.760;37.678;2023-02-15T03:20:49;1.18;87.50
74923;HTU21D;64715;44.760;37.678;2023-02-15T03:21:54;1.19;87.54
74923;HTU21D;64715;44.760;37.678;2023-02-15T03:23:10;1.18;87.54
74923;HTU21D;64715;44.760;37.678;2023-02-15T03:24:21;1.21;87.50
74923;HTU21D;64715;44.760;37.678;2023-02-15T03:25:30;1.19;87.39
74923;HTU21D;64715;44.760;37.678;2023-02-15T03:26:34;1.20;87.57
74923;HTU21D;64715;44.760;37.678;2023-02-15T03:27:43;1.20;87.63
74923;HTU21D;64715;44.760;37.678;2023-02-15T03:28:48;1.20;87.75
74923;HTU21D;64715;44.760;37.678;2023-02-15T03:29:58;1.22;87.51
74923;HTU21D;64715;44.760;37.678;2023-02-15T03:31:02;1.22;87.48
74923;HTU21D;64715;44.760;37.678;2023-02-15T03:32:07;1.24;87.63
74923;HTU21D;64715;44.760;37.678;2023-02-15T03:33:11;1.25;87.42
74923;HTU21D;64715;44.760;37.678;2023-02-15T03:34:14;1.25;87.40
74923;HTU21D;64715;44.760;37.678;2023-02-15T03:35:16;1.24;87.38
74923;HTU21D;64715;44.760;37.678;2023-02-15T03:36:22;1.24;87.59
74923;HTU21D;64715;44.760;37.678;2023-02-15T03:37:59;1.25;87.51
74923;HTU21D;64715;44.760;37.678;2023-02-15T03:39:10;1.23;87.41
74923;HTU21D;64715;44.760;37.678;2023-02-15T03:40:26;1.21;87.51
74923;HTU21D;64715;44.760;37.678;2023-02-15T03:43:12;1.17;87.48
74923;HTU21D;64715;44.760;37.678;2023-02-15T03:44:22;1.14;87.15
74923;HTU21D;64715;44.760;37.678;2023-02-15T03:45:29;1.16;87.25
74923;HTU21D;64715;44.760;37.678;2023-02-15T03:46:45;1.13;87.36
74923;HTU21D;64715;44.760;37.678;2023-02-15T03:47:49;1.11;87.38
74923;HTU21D;64715;44.760;37.678;2023-02-15T03:48:57;1.10;87.34
74923;HTU21D;64715;44.760;37.678;2023-02-15T03:50:12;1.11;87.57
74923;HTU21D;64715;44.760;37.678;2023-02-15T03:51:37;1.10;87.47
74923;HTU21D;64715;44.760;37.678;2023-02-15T03:52:40;1.09;87.63
74923;HTU21D;64715;44.760;37.678;2023-02-15T03:53:42;1.09;87.35
74923;HTU21D;64715;44.760;37.678;2023-02-15T03:54:44;1.08;87.22
74923;HTU21D;64715;44.760;37.678;2023-02-15T03:55:49;1.09;87.39
74923;HTU21D;64715;44.760;37.678;2023-02-15T03:56:50;1.09;87.20
74923;HTU21D;64715;44.760;37.678;2023-02-15T03:58:12;1.08;87.82
74923;HTU21D;64715;44.760;37.678;2023-02-15T03:59:31;1.10;87.35
74923;HTU21D;64715;44.760;37.678;2023-02-15T04:01:05;1.09;87.41
74923;HTU21D;64715;44.760;37.678;2023-02-15T04:03:57;1.06;87.54
74923;HTU21D;64715;44.760;37.678;2023-02-15T04:05:00;1.05;87.48
74923;HTU21D;64715;44.760;37.678;2023-02-15T04:06:02;1.07;87.41
74923;HTU21D;64715;44.760;37.678;2023-02-15T04:07:06;1.07;87.43
74923;HTU21D;64715;44.760;37.678;2023-02-15T04:08:08;1.07;87.57
74923;HTU21D;64715;44.760;37.678;2023-02-15T04:09:09;1.08;87.88
74923;HTU21D;64715;44.760;37.678;2023-02-15T04:10:28;1.09;87.56
74923;HTU21D;64715;44.760;37.678;2023-02-15T04:11:47;1.09;87.84
74923;HTU21D;64715;44.760;37.678;2023-02-15T04:12:48;1.09;87.65
74923;HTU21D;64715;44.760;37.678;2023-02-15T04:13:49;1.10;87.63
74923;HTU21D;64715;44.760;37.678;2023-02-15T04:14:56;1.09;87.65
74923;HTU21D;64715;44.760;37.678;2023-02-15T04:16:16;1.09;87.61
74923;HTU21D;64715;44.760;37.678;2023-02-15T04:17:17;1.11;87.77
74923;HTU21D;64715;44.760;37.678;2023-02-15T04:18:19;1.11;87.64
74923;HTU21D;64715;44.760;37.678;2023-02-15T04:19:20;1.08;87.51
74923;HTU21D;64715;44.760;37.678;2023-02-15T04:20:43;1.11;87.67
74923;HTU21D;64715;44.760;37.678;2023-02-15T04:22:03;1.11;87.56
74923;HTU21D;64715;44.760;37.678;2023-02-15T04:23:22;1.09;87.65
74923;HTU21D;64715;44.760;37.678;2023-02-15T04:24:42;1.07;87.83
74923;HTU21D;64715;44.760;37.678;2023-02-15T04:26:05;1.08;87.38
74923;HTU21D;64715;44.760;37.678;2023-02-15T04:27:06;1.07;87.82
74923;HTU21D;64715;44.760;37.678;2023-02-15T04:28:08;1.09;87.74
74923;HTU21D;64715;44.760;37.678;2023-02-15T04:29:09;1.07;87.69
74923;HTU21D;64715;44.760;37.678;2023-02-15T04:30:11;1.09;87.85
74923;HTU21D;64715;44.760;37.678;2023-02-15T04:31:13;1.08;87.82
74923;HTU21D;64715;44.760;37.678;2023-02-15T04:32:14;1.11;87.65
74923;HTU21D;64715;44.760;37.678;2023-02-15T04:33:16;1.11;87.95
74923;HTU21D;64715;44.760;37.678;2023-02-15T04:34:17;1.10;87.85
74923;HTU21D;64715;44.760;37.678;2023-02-15T04:35:18;1.12;87.58
74923;HTU21D;64715;44.760;37.678;2023-02-15T04:36:19;1.11;87.68
74923;HTU21D;64715;44.760;37.678;2023-02-15T04:37:20;1.12;87.67
74923;HTU21D;64715;44.760;37.678;2023-02-15T04:38:21;1.14;87.70
74923;HTU21D;64715;44.760;37.678;2023-02-15T04:39:23;1.16;87.57
74923;HTU21D;64715;44.760;37.678;2023-02-15T04:40:23;1.13;87.68
74923;HTU21D;64715;44.760;37.678;2023-02-15T04:41:24;1.12;87.87
74923;HTU21D;64715;44.760;37.678;2023-02-15T04:42:26;1.13;87.71
74923;HTU21D;64715;44.760;37.678;2023-02-15T04:43:27;1.13;87.69
74923;HTU21D;64715;44.760;37.678;2023-02-15T04:44:28;1.13;87.91
74923;HTU21D;64715;44.760;37.678;2023-02-15T04:45:29;1.13;87.78
74923;HTU21D;64715;44.760;37.678;2023-02-15T04:46:30;1.14;87.51
74923;HTU21D;64715;44.760;37.678;2023-02-15T04:47:31;1.16;87.68
74923;HTU21D;64715;44.760;37.678;2023-02-15T04:48:32;1.16;87.58
74923;HTU21D;64715;44.760;37.678;2023-02-15T04:49:33;1.17;87.70
74923;HTU21D;64715;44.760;37.678;2023-02-15T04:50:35;1.17;87.61
74923;HTU21D;64715;44.760;37.678;2023-02-15T04:51:36;1.17;87.46
74923;HTU21D;64715;44.760;37.678;2023-02-15T04:52:37;1.19;87.61
74923;HTU21D;64715;44.760;37.678;2023-02-15T04:53:38;1.18;87.28
74923;HTU21D;64715;44.760;37.678;2023-02-15T04:54:39;1.18;87.77
74923;HTU21D;64715;44.760;37.678;2023-02-15T04:55:40;1.18;87.48
74923;HTU21D;64715;44.760;37.678;2023-02-15T04:56:42;1.19;87.32
74923;HTU21D;64715;44.760;37.678;2023-02-15T04:57:44;1.19;87.30
74923;HTU21D;64715;44.760;37.678;2023-02-15T04:58:46;1.18;87.52
74923;HTU21D;64715;44.760;37.678;2023-02-15T04:59:47;1.18;87.35
74923;HTU21D;64715;44.760;37.678;2023-02-15T05:00:48;1.16;87.58
74923;HTU21D;64715;44.760;37.678;2023-02-15T05:01:49;1.14;87.40
74923;HTU21D;64715;44.760;37.678;2023-02-15T05:02:50;1.13;86.99
74923;HTU21D;64715;44.760;37.678;2023-02-15T05:03:51;1.12;87.18
74923;HTU21D;64715;44.760;37.678;2023-02-15T05:04:52;1.10;87.20
74923;HTU21D;64715;44.760;37.678;2023-02-15T05:05:54;1.11;87.06
74923;HTU21D;64715;44.760;37.678;2023-02-15T05:06:55;1.07;87.13
74923;HTU21D;64715;44.760;37.678;2023-02-15T05:07:56;1.06;87.19
74923;HTU21D;64715;44.760;37.678;2023-02-15T05:08:57;1.05;86.86
74923;HTU21D;64715;44.760;37.678;2023-02-15T05:09:59;1.05;87.17
74923;HTU21D;64715;44.760;37.678;2023-02-15T05:11:01;1.04;86.96
74923;HTU21D;64715;44.760;37.678;2023-02-15T05:12:02;1.05;86.99
74923;HTU21D;64715;44.760;37.678;2023-02-15T05:13:04;1.04;86.98
74923;HTU21D;64715;44.760;37.678;2023-02-15T05:14:05;1.04;87.02
74923;HTU21D;64715;44.760;37.678;2023-02-15T05:15:06;1.03;86.96
74923;HTU21D;64715;44.760;37.678;2023-02-15T05:16:08;1.05;87.03
74923;HTU21D;64715;44.760;37.678;2023-02-15T05:17:08;1.04;87.12
74923;HTU21D;64715;44.760;37.678;2023-02-15T05:18:11;1.05;87.19
74923;HTU21D;64715;44.760;37.678;2023-02-15T05:19:12;1.06;87.22
74923;HTU21D;64715;44.760;37.678;2023-02-15T05:20:13;1.09;87.23
74923;HTU21D;64715;44.760;37.678;2023-02-15T05:21:15;1.10;87.27
74923;HTU21D;64715;44.760;37.678;2023-02-15T05:22:17;1.10;87.28
74923;HTU21D;64715;44.760;37.678;2023-02-15T05:23:18;1.11;87.44
74923;HTU21D;64715;44.760;37.678;2023-02-15T05:24:18;1.16;87.32
74923;HTU21D;64715;44.760;37.678;2023-02-15T05:25:38;1.13;87.19
74923;HTU21D;64715;44.760;37.678;2023-02-15T05:26:57;1.16;87.47
74923;HTU21D;64715;44.760;37.678;2023-02-15T05:28:17;1.14;87.24
74923;HTU21D;64715;44.760;37.678;2023-02-15T05:29:20;1.17;87.52
74923;HTU21D;64715;44.760;37.678;2023-02-15T05:30:21;1.18;87.27
74923;HTU21D;64715;44.760;37.678;2023-02-15T05:31:22;1.18;87.49
74923;HTU21D;64715;44.760;37.678;2023-02-15T05:32:23;1.20;87.36
74923;HTU21D;64715;44.760;37.678;2023-02-15T05:33:25;1.19;87.51
74923;HTU21D;64715;44.760;37.678;2023-02-15T05:34:25;1.23;87.41
74923;HTU21D;64715;44.760;37.678;2023-02-15T05:35:26;1.21;87.85
74923;HTU21D;64715;44.760;37.678;2023-02-15T05:36:28;1.25;87.67
74923;HTU21D;64715;44.760;37.678;2023-02-15T05:37:29;1.24;87.45
74923;HTU21D;64715;44.760;37.678;2023-02-15T05:38:30;1.27;87.57
74923;HTU21D;64715;44.760;37.678;2023-02-15T05:39:31;1.27;87.51
74923;HTU21D;64715;44.760;37.678;2023-02-15T05:40:32;1.28;87.38
74923;HTU21D;64715;44.760;37.678;2023-02-15T05:41:33;1.32;87.40
74923;HTU21D;64715;44.760;37.678;2023-02-15T05:42:34;1.33;87.36
74923;HTU21D;64715;44.760;37.678;2023-02-15T05:43:35;1.36;87.39
74923;HTU21D;64715;44.760;37.678;2023-02-15T05:44:36;1.37;87.45
74923;HTU21D;64715;44.760;37.678;2023-02-15T05:45:39;1.37;87.69
74923;HTU21D;64715;44.760;37.678;2023-02-15T05:46:40;1.40;87.76
74923;HTU21D;64715;44.760;37.678;2023-02-15T05:47:41;1.43;87.44
74923;HTU21D;64715;44.760;37.678;2023-02-15T05:48:42;1.46;87.54
74923;HTU21D;64715;44.760;37.678;2023-02-15T05:49:43;1.48;87.54
74923;HTU21D;64715;44.760;37.678;2023-02-15T05:50:44;1.52;87.56
74923;HTU21D;64715;44.760;37.678;2023-02-15T05:51:46;1.56;87.58
74923;HTU21D;64715;44.760;37.678;2023-02-15T05:52:46;1.58;87.70
74923;HTU21D;64715;44.760;37.678;2023-02-15T05:53:47;1.64;87.70
74923;HTU21D;64715;44.760;37.678;2023-02-15T05:54:48;1.69;87.78
74923;HTU21D;64715;44.760;37.678;2023-02-15T05:55:49;1.73;87.61
74923;HTU21D;64715;44.760;37.678;2023-02-15T05:56:50;1.78;87.63
74923;HTU21D;64715;44.760;37.678;2023-02-15T05:57:51;1.79;87.40
74923;HTU21D;64715;44.760;37.678;2023-02-15T05:58:52;1.80;87.51
74923;HTU21D;64715;44.760;37.678;2023-02-15T05:59:54;1.82;87.32
74923;HTU21D;64715;44.760;37.678;2023-02-15T06:00:55;1.85;87.35
74923;HTU21D;64715;44.760;37.678;2023-02-15T06:01:56;1.85;87.62
74923;HTU21D;64715;44.760;37.678;2023-02-15T06:02:57;1.86;87.34
74923;HTU21D;64715;44.760;37.678;2023-02-15T06:03:58;1.90;87.32
74923;HTU21D;64715;44.760;37.678;2023-02-15T06:05:00;1.90;86.93
74923;HTU21D;64715;44.760;37.678;2023-02-15T06:06:01;1.94;86.99
74923;HTU21D;64715;44.760;37.678;2023-02-15T06:07:03;1.98;87.27
74923;HTU21D;64715;44.760;37.678;2023-02-15T06:08:05;2.00;87.19
74923;HTU21D;64715;44.760;37.678;2023-02-15T06:09:07;2.03;87.22
74923;HTU21D;64715;44.760;37.678;2023-02-15T06:10:08;2.06;87.09
74923;HTU21D;64715;44.760;37.678;2023-02-15T06:11:09;2.10;86.92
74923;HTU21D;64715;44.760;37.678;2023-02-15T06:12:12;2.09;86.95
74923;HTU21D;64715;44.760;37.678;2023-02-15T06:13:13;2.11;87.02
74923;HTU21D;64715;44.760;37.678;2023-02-15T06:14:14;2.11;86.59
74923;HTU21D;64715;44.760;37.678;2023-02-15T06:15:15;2.13;86.93
74923;HTU21D;64715;44.760;37.678;2023-02-15T06:16:16;2.12;86.68
74923;HTU21D;64715;44.760;37.678;2023-02-15T06:17:17;2.15;86.59
74923;HTU21D;64715;44.760;37.678;2023-02-15T06:18:18;2.15;86.46
74923;HTU21D;64715;44.760;37.678;2023-02-15T06:19:19;2.19;86.39
74923;HTU21D;64715;44.760;37.678;2023-02-15T06:20:21;2.23;86.54
74923;HTU21D;64715;44.760;37.678;2023-02-15T06:21:22;2.26;86.41
74923;HTU21D;64715;44.760;37.678;2023-02-15T06:22:23;2.28;86.51
74923;HTU21D;64715;44.760;37.678;2023-02-15T06:23:24;2.31;86.84
74923;HTU21D;64715;44.760;37.678;2023-02-15T06:24:25;2.35;86.49
74923;HTU21D;64715;44.760;37.678;2023-02-15T06:25:26;2.35;86.33
74923;HTU21D;64715;44.760;37.678;2023-02-15T06:26:27;2.36;86.43
74923;HTU21D;64715;44.760;37.678;2023-02-15T06:27:29;2.36;86.25
74923;HTU21D;64715;44.760;37.678;2023-02-15T06:28:30;2.38;85.90
74923;HTU21D;64715;44.760;37.678;2023-02-15T06:29:30;2.37;86.04
74923;HTU21D;64715;44.760;37.678;2023-02-15T06:30:32;2.40;86.00
74923;HTU21D;64715;44.760;37.678;2023-02-15T06:31:33;2.40;85.79
74923;HTU21D;64715;44.760;37.678;2023-02-15T06:32:34;2.38;85.61
74923;HTU21D;64715;44.760;37.678;2023-02-15T06:33:35;2.38;85.62
74923;HTU21D;64715;44.760;37.678;2023-02-15T06:34:36;2.37;85.73
74923;HTU21D;64715;44.760;37.678;2023-02-15T06:35:37;2.36;85.43
74923;HTU21D;64715;44.760;37.678;2023-02-15T06:36:38;2.32;85.53
74923;HTU21D;64715;44.760;37.678;2023-02-15T06:37:39;2.34;85.48
74923;HTU21D;64715;44.760;37.678;2023-02-15T06:38:40;2.31;85.32
74923;HTU21D;64715;44.760;37.678;2023-02-15T06:39:41;2.31;85.09
74923;HTU21D;64715;44.760;37.678;2023-02-15T06:40:43;2.31;85.52
74923;HTU21D;64715;44.760;37.678;2023-02-15T06:41:44;2.31;85.16
74923;HTU21D;64715;44.760;37.678;2023-02-15T06:42:45;2.31;85.39
74923;HTU21D;64715;44.760;37.678;2023-02-15T06:43:46;2.35;85.62
74923;HTU21D;64715;44.760;37.678;2023-02-15T06:44:47;2.40;85.50
74923;HTU21D;64715;44.760;37.678;2023-02-15T06:45:48;2.41;85.44
74923;HTU21D;64715;44.760;37.678;2023-02-15T06:46:50;2.47;85.90
74923;HTU21D;64715;44.760;37.678;2023-02-15T06:47:51;2.56;85.35
74923;HTU21D;64715;44.760;37.678;2023-02-15T06:48:52;2.65;85.78
74923;HTU21D;64715;44.760;37.678;2023-02-15T06:49:53;2.73;85.58
74923;HTU21D;64715;44.760;37.678;2023-02-15T06:50:54;2.81;85.72
74923;HTU21D;64715;44.760;37.678;2023-02-15T06:51:55;2.85;85.53
74923;HTU21D;64715;44.760;37.678;2023-02-15T06:52:57;2.86;85.22
74923;HTU21D;64715;44.760;37.678;2023-02-15T06:53:58;2.85;85.22
74923;HTU21D;64715;44.760;37.678;2023-02-15T06:54:59;2.85;84.94
74923;HTU21D;64715;44.760;37.678;2023-02-15T06:56:04;2.83;84.72
74923;HTU21D;64715;44.760;37.678;2023-02-15T06:57:07;2.81;84.20
74923;HTU21D;64715;44.760;37.678;2023-02-15T06:58:10;2.76;84.11
74923;HTU21D;64715;44.760;37.678;2023-02-15T06:59:11;2.70;84.02
74923;HTU21D;64715;44.760;37.678;2023-02-15T07:00:12;2.65;84.31
74923;HTU21D;64715;44.760;37.678;2023-02-15T07:01:13;2.61;83.80
74923;HTU21D;64715;44.760;37.678;2023-02-15T07:02:14;2.57;83.58
74923;HTU21D;64715;44.760;37.678;2023-02-15T07:03:16;2.53;83.81